Time;durP1;ratioP1;P1;durP2;ratioP2;P2;SDS_P1;SDS_P2;PMS_P1;PMS_P2;Temp;Humidity;BMP_temperature;BMP_pressure;BME280_temperature;BME280_humidity;BME280_pressure;Samples;Min_cycle;Max_cycle;Signal;HPM_P1;HPM_P2
2023/07/07 00:00:16;;;;;;;0.00;0.00;;;;;;;;;;1042556;28;20021;-73
2023/07/07 00:00:47;;;;;;;0.00;0.00;;;;;;;;;;1043635;28;20029;-73
2023/07/07 00:01:18;;;;;;;1.10;0.88;;;;;;;;;;1044200;28;20151;-73
2023/07/07 00:01:48;;;;;;;0.00;0.00;;;;;;;;;;1043465;28;20048;-73
2023/07/07 00:02:18;;;;;;;0.47;0.47;;;;;;;;;;1043849;28;20036;-73
2023/07/07 00:02:49;;;;;;;0.00;0.00;;;;;;;;;;1043454;28;20068;-73
2023/07/07 00:03:19;;;;;;;0.20;0.13;;;;;;;;;;1044386;28;20099;-73
2023/07/07 00:03:50;;;;;;;0.00;0.00;;;;;;;;;;1043550;28;20108;-73
2023/07/07 00:04:21;;;;;;;0.20;0.20;;;;;;;;;;1043921;28;20384;-73
2023/07/07 00:04:51;;;;;;;0.40;0.30;;;;;;;;;;1043667;28;20092;-73
2023/07/07 00:05:21;;;;;;;0.00;0.00;;;;;;;;;;1043951;28;20031;-73
2023/07/07 00:05:52;;;;;;;0.00;0.00;;;;;;;;;;1043863;28;20023;-73
2023/07/07 00:06:22;;;;;;;2.35;1.33;;;;;;;;;;1043743;28;20050;-73
2023/07/07 00:06:53;;;;;;;1.70;1.60;;;;;;;;;;1043061;28;20074;-73
2023/07/07 00:07:23;;;;;;;0.10;0.10;;;;;;;;;;1043862;28;20051;-73
2023/07/07 00:07:54;;;;;;;2.75;1.55;;;;;;;;;;1043373;28;20021;-73
2023/07/07 00:08:24;;;;;;;0.00;0.00;;;;;;;;;;1043447;28;20025;-73
2023/07/07 00:08:55;;;;;;;0.22;0.15;;;;;;;;;;1043710;28;20163;-73
2023/07/07 00:09:25;;;;;;;0.35;0.35;;;;;;;;;;1043637;28;20021;-73
2023/07/07 00:09:56;;;;;;;0.00;0.00;;;;;;;;;;1043622;28;20037;-73
2023/07/07 00:10:26;;;;;;;0.20;0.20;;;;;;;;;;1039812;28;20021;-73
2023/07/07 00:10:58;;;;;;;0.20;0.20;;;;;;;;;;1039286;28;20029;-73
2023/07/07 00:11:29;;;;;;;0.00;0.00;;;;;;;;;;1039057;28;20029;-73
2023/07/07 00:12:00;;;;;;;0.25;0.25;;;;;;;;;;1039477;28;20556;-73
2023/07/07 00:12:31;;;;;;;0.63;0.28;;;;;;;;;;1043241;28;20376;-73
2023/07/07 00:13:01;;;;;;;2.90;1.08;;;;;;;;;;1043729;28;20027;-73
2023/07/07 00:13:32;;;;;;;0.70;0.38;;;;;;;;;;1043758;28;20024;-73
2023/07/07 00:14:03;;;;;;;0.10;0.10;;;;;;;;;;1043748;28;20108;-73
2023/07/07 00:14:33;;;;;;;0.47;0.47;;;;;;;;;;1044005;28;20029;-73
2023/07/07 00:15:04;;;;;;;0.40;0.40;;;;;;;;;;1043787;28;20024;-73
2023/07/07 00:15:34;;;;;;;0.08;0.08;;;;;;;;;;1043682;28;20119;-73
2023/07/07 00:16:05;;;;;;;0.40;0.40;;;;;;;;;;1039276;28;20432;-73
2023/07/07 00:16:37;;;;;;;0.10;0.10;;;;;;;;;;1039460;28;20511;-73
2023/07/07 00:17:08;;;;;;;0.32;0.32;;;;;;;;;;1039512;28;20512;-73
2023/07/07 00:17:41;;;;;;;0.10;0.10;;;;;;;;;;1039626;28;20017;-73
2023/07/07 00:18:26;;;;;;;1.83;1.08;;;;;;;;;;1043812;28;20028;-73
2023/07/07 00:18:58;;;;;;;0.22;0.22;;;;;;;;;;1043287;28;20021;-73
2023/07/07 00:19:36;;;;;;;0.60;0.60;;;;;;;;;;1043646;28;20025;-73
2023/07/07 00:20:09;;;;;;;0.00;0.00;;;;;;;;;;1043819;28;20043;-73
2023/07/07 00:20:40;;;;;;;0.00;0.00;;;;;;;;;;1039267;28;20017;-73
2023/07/07 00:21:10;;;;;;;0.60;0.60;;;;;;;;;;1039308;28;20021;-73
2023/07/07 00:21:42;;;;;;;13.05;1.77;;;;;;;;;;1039289;28;20044;-73
2023/07/07 00:22:13;;;;;;;0.75;0.65;;;;;;;;;;1039665;28;20075;-73
2023/07/07 00:22:44;;;;;;;0.00;0.00;;;;;;;;;;1043856;28;20163;-73
2023/07/07 00:23:15;;;;;;;0.20;0.20;;;;;;;;;;1039451;28;20029;-73
2023/07/07 00:23:46;;;;;;;0.00;0.00;;;;;;;;;;1037296;28;20048;-73
2023/07/07 00:24:16;;;;;;;0.65;0.65;;;;;;;;;;1037473;28;20021;-73
2023/07/07 00:24:47;;;;;;;3.60;0.68;;;;;;;;;;1037132;28;20037;-73
2023/07/07 00:25:17;;;;;;;0.03;0.03;;;;;;;;;;1039561;28;20025;-73
2023/07/07 00:26:01;;;;;;;1.23;1.13;;;;;;;;;;1043608;28;20025;-73
2023/07/07 00:26:32;;;;;;;2.60;1.08;;;;;;;;;;1042917;28;20020;-73
2023/07/07 00:27:03;;;;;;;1.17;0.40;;;;;;;;;;1039068;28;20542;-73
2023/07/07 00:27:34;;;;;;;2.42;0.63;;;;;;;;;;1039391;28;20052;-73
2023/07/07 00:28:04;;;;;;;1.30;0.75;;;;;;;;;;1039334;28;20041;-73
2023/07/07 00:28:35;;;;;;;0.30;0.30;;;;;;;;;;1039732;28;20035;-73
2023/07/07 00:29:05;;;;;;;1.55;1.02;;;;;;;;;;1043691;28;20037;-73
2023/07/07 00:29:36;;;;;;;1.15;0.65;;;;;;;;;;1039161;28;20163;-73
2023/07/07 00:30:06;;;;;;;3.03;1.70;;;;;;;;;;1039287;28;20536;-73
2023/07/07 00:30:37;;;;;;;4.05;1.75;;;;;;;;;;1039666;28;20560;-73
2023/07/07 00:31:07;;;;;;;6.90;0.95;;;;;;;;;;1039472;28;20010;-73
2023/07/07 00:31:38;;;;;;;1.98;1.77;;;;;;;;;;1039328;28;20033;-73
2023/07/07 00:32:08;;;;;;;7.35;1.70;;;;;;;;;;1043563;28;20013;-73
2023/07/07 00:32:39;;;;;;;2.97;1.58;;;;;;;;;;1039331;28;20022;-73
2023/07/07 00:33:09;;;;;;;22.02;3.70;;;;;;;;;;1039638;28;20587;-73
2023/07/07 00:33:40;;;;;;;21.85;3.80;;;;;;;;;;1039974;28;20026;-73
2023/07/07 00:34:10;;;;;;;26.23;4.47;;;;;;;;;;1040139;28;20057;-73
2023/07/07 00:34:41;;;;;;;17.80;3.75;;;;;;;;;;1040035;28;20029;-73
2023/07/07 00:35:11;;;;;;;18.27;3.83;;;;;;;;;;1040167;28;20028;-73
2023/07/07 00:35:46;;;;;;;6.28;1.73;;;;;;;;;;1039837;28;20021;-73
2023/07/07 00:36:17;;;;;;;10.68;3.13;;;;;;;;;;1040068;28;20112;-73
2023/07/07 00:36:47;;;;;;;15.88;3.97;;;;;;;;;;1039936;28;20025;-73
2023/07/07 00:37:18;;;;;;;5.63;2.78;;;;;;;;;;1041272;28;20029;-73
2023/07/07 00:37:48;;;;;;;2.05;1.50;;;;;;;;;;1044174;28;20031;-73
2023/07/07 00:38:19;;;;;;;14.73;3.72;;;;;;;;;;1044665;28;20016;-73
2023/07/07 00:38:51;;;;;;;12.43;3.65;;;;;;;;;;1044323;28;20242;-73
2023/07/07 00:39:21;;;;;;;4.60;2.33;;;;;;;;;;1044969;28;20021;-73
2023/07/07 00:39:52;;;;;;;8.93;4.03;;;;;;;;;;1043760;28;20443;-73
2023/07/07 00:40:22;;;;;;;22.35;4.93;;;;;;;;;;1044606;28;20013;-73
2023/07/07 00:40:53;;;;;;;6.72;2.63;;;;;;;;;;1044403;28;20025;-73
2023/07/07 00:41:23;;;;;;;10.45;4.78;;;;;;;;;;1044854;28;20051;-73
2023/07/07 00:41:54;;;;;;;13.25;2.88;;;;;;;;;;1043774;28;20079;-73
2023/07/07 00:42:24;;;;;;;7.93;3.45;;;;;;;;;;1044022;28;20119;-73
2023/07/07 00:42:54;;;;;;;9.00;2.83;;;;;;;;;;1044370;28;20484;-73
2023/07/07 00:43:25;;;;;;;6.78;1.92;;;;;;;;;;1044258;28;20140;-73
2023/07/07 00:44:09;;;;;;;13.27;3.53;;;;;;;;;;1044343;28;20029;-73
2023/07/07 00:44:57;;;;;;;3.97;2.47;;;;;;;;;;1039879;28;20460;-73
2023/07/07 00:45:28;;;;;;;1.92;1.55;;;;;;;;;;1040044;28;20032;-73
2023/07/07 00:45:59;;;;;;;8.13;3.92;;;;;;;;;;1039955;28;20491;-73
2023/07/07 00:46:29;;;;;;;5.40;2.55;;;;;;;;;;1043083;28;20472;-73
2023/07/07 00:47:00;;;;;;;5.15;1.40;;;;;;;;;;1039671;28;20528;-73
2023/07/07 00:47:31;;;;;;;5.68;2.40;;;;;;;;;;1039947;28;20025;-73
2023/07/07 00:48:03;;;;;;;12.80;3.65;;;;;;;;;;1040040;28;20026;-73
2023/07/07 00:48:34;;;;;;;4.03;1.00;;;;;;;;;;1040722;28;20040;-73
2023/07/07 00:49:06;;;;;;;8.80;3.58;;;;;;;;;;1044367;28;20016;-73
2023/07/07 00:49:37;;;;;;;0.40;0.40;;;;;;;;;;1039815;28;20029;-73
2023/07/07 00:50:08;;;;;;;12.65;1.95;;;;;;;;;;1039991;28;20010;-73
2023/07/07 00:50:42;;;;;;;3.88;1.92;;;;;;;;;;1040326;28;20029;-73
2023/07/07 00:51:18;;;;;;;4.13;2.20;;;;;;;;;;1040523;28;20017;-73
2023/07/07 00:51:59;;;;;;;1.30;1.20;;;;;;;;;;1044221;28;20427;-73
2023/07/07 00:52:29;;;;;;;16.75;2.92;;;;;;;;;;1044032;28;20021;-73
2023/07/07 00:53:00;;;;;;;7.50;1.83;;;;;;;;;;1042796;28;20544;-73
2023/07/07 00:53:31;;;;;;;16.55;2.60;;;;;;;;;;1044482;28;20056;-73
2023/07/07 00:54:04;;;;;;;16.90;3.35;;;;;;;;;;1044266;28;20028;-73
2023/07/07 00:54:35;;;;;;;3.53;2.13;;;;;;;;;;1039953;28;20021;-73
2023/07/07 00:55:08;;;;;;;3.05;1.98;;;;;;;;;;1039986;28;20025;-73
2023/07/07 00:55:38;;;;;;;4.50;1.70;;;;;;;;;;1039876;28;20060;-73
2023/07/07 00:56:13;;;;;;;0.15;0.15;;;;;;;;;;1040594;28;20389;-73
2023/07/07 00:56:46;;;;;;;4.18;1.67;;;;;;;;;;1039375;28;20037;-73
2023/07/07 00:57:16;;;;;;;0.75;0.68;;;;;;;;;;1039392;28;20013;-73
2023/07/07 00:57:47;;;;;;;1.52;1.42;;;;;;;;;;1039413;28;20465;-73
2023/07/07 00:58:19;;;;;;;9.43;1.95;;;;;;;;;;1040427;28;20128;-73
2023/07/07 00:58:50;;;;;;;5.20;1.88;;;;;;;;;;1039694;28;20017;-73
2023/07/07 00:59:23;;;;;;;4.43;1.50;;;;;;;;;;1040298;28;20052;-73
2023/07/07 00:59:54;;;;;;;0.88;0.50;;;;;;;;;;1035093;28;20024;-73
2023/07/07 01:00:24;;;;;;;2.05;0.98;;;;;;;;;;1036145;28;20029;-73
2023/07/07 01:01:12;;;;;;;3.22;0.77;;;;;;;;;;1039848;28;20029;-73
2023/07/07 01:01:42;;;;;;;3.03;1.33;;;;;;;;;;1042224;28;20104;-73
2023/07/07 01:02:15;;;;;;;4.47;0.98;;;;;;;;;;1040395;28;20018;-73
2023/07/07 01:02:49;;;;;;;10.93;1.08;;;;;;;;;;1039468;28;20031;-73
2023/07/07 01:03:26;;;;;;;5.07;1.45;;;;;;;;;;1040095;28;20122;-73
2023/07/07 01:03:57;;;;;;;2.95;1.65;;;;;;;;;;1041460;28;20052;-73
2023/07/07 01:04:28;;;;;;;0.40;0.40;;;;;;;;;;1039990;28;20480;-73
2023/07/07 01:05:00;;;;;;;0.55;0.55;;;;;;;;;;1039754;28;20033;-73
2023/07/07 01:05:32;;;;;;;1.38;0.73;;;;;;;;;;1038860;28;20028;-73
2023/07/07 01:06:02;;;;;;;0.30;0.30;;;;;;;;;;1040288;28;20056;-73
2023/07/07 01:06:35;;;;;;;0.63;0.63;;;;;;;;;;1040015;28;20026;-73
2023/07/07 01:07:11;;;;;;;0.38;0.38;;;;;;;;;;1039838;28;20029;-73
2023/07/07 01:07:43;;;;;;;1.23;0.45;;;;;;;;;;1039694;28;20021;-73
2023/07/07 01:08:14;;;;;;;0.20;0.20;;;;;;;;;;1041262;28;20508;-73
2023/07/07 01:08:47;;;;;;;4.00;2.22;;;;;;;;;;1043091;28;20036;-73
2023/07/07 01:09:18;;;;;;;2.15;0.47;;;;;;;;;;1044136;28;20024;-73
2023/07/07 01:09:48;;;;;;;4.45;2.40;;;;;;;;;;1043506;28;20021;-73
2023/07/07 01:10:19;;;;;;;0.00;0.00;;;;;;;;;;1044268;28;20021;-73
2023/07/07 01:10:50;;;;;;;3.33;2.40;;;;;;;;;;1039177;28;20525;-73
2023/07/07 01:11:20;;;;;;;0.40;0.40;;;;;;;;;;1040453;28;20057;-73
2023/07/07 01:11:51;;;;;;;0.10;0.10;;;;;;;;;;1039602;28;20070;-73
2023/07/07 01:12:21;;;;;;;0.35;0.35;;;;;;;;;;1039986;28;20064;-73
2023/07/07 01:12:52;;;;;;;0.80;0.80;;;;;;;;;;1043925;28;20028;-73
2023/07/07 01:13:22;;;;;;;1.83;0.68;;;;;;;;;;1044093;28;20071;-73
2023/07/07 01:13:53;;;;;;;0.20;0.20;;;;;;;;;;1044067;28;20025;-73
2023/07/07 01:14:25;;;;;;;1.95;1.45;;;;;;;;;;1043934;28;20029;-73
2023/07/07 01:14:56;;;;;;;0.22;0.22;;;;;;;;;;1039719;28;20083;-73
2023/07/07 01:15:30;;;;;;;1.45;1.35;;;;;;;;;;1040074;28;20052;-73
2023/07/07 01:16:08;;;;;;;10.10;1.25;;;;;;;;;;1040248;28;20117;-73
2023/07/07 01:16:42;;;;;;;0.70;0.68;;;;;;;;;;1039954;28;20114;-73
2023/07/07 01:17:28;;;;;;;0.80;0.80;;;;;;;;;;1044200;28;20480;-73
2023/07/07 01:18:13;;;;;;;0.40;0.40;;;;;;;;;;1044075;28;20029;-73
2023/07/07 01:18:50;;;;;;;0.77;0.77;;;;;;;;;;1043686;28;20025;-73
2023/07/07 01:19:45;;;;;;;0.28;0.28;;;;;;;;;;1044135;28;20017;-73
2023/07/07 01:20:21;;;;;;;0.22;0.13;;;;;;;;;;1043292;28;20481;-73
2023/07/07 01:21:01;;;;;;;1.33;0.65;;;;;;;;;;1043965;28;20025;-73
2023/07/07 01:21:43;;;;;;;0.55;0.55;;;;;;;;;;1039118;28;20064;-73
2023/07/07 01:22:31;;;;;;;0.20;0.20;;;;;;;;;;1038737;28;20042;-73
2023/07/07 01:23:27;;;;;;;2.45;0.63;;;;;;;;;;1039476;28;20316;-73
2023/07/07 01:24:10;;;;;;;1.58;1.48;;;;;;;;;;1026947;28;20039;-73
2023/07/07 01:24:43;;;;;;;0.65;0.65;;;;;;;;;;1036153;28;20030;-73
2023/07/07 01:25:28;;;;;;;0.40;0.40;;;;;;;;;;1039678;28;20013;-73
2023/07/07 01:26:14;;;;;;;0.88;0.82;;;;;;;;;;1039469;28;20024;-73
2023/07/07 01:26:51;;;;;;;8.32;0.70;;;;;;;;;;1039746;28;20025;-73
2023/07/07 01:27:26;;;;;;;0.88;0.20;;;;;;;;;;1039673;28;20025;-73
2023/07/07 01:28:13;;;;;;;0.10;0.10;;;;;;;;;;1034870;28;20521;-73
2023/07/07 01:29:03;;;;;;;0.70;0.70;;;;;;;;;;1035599;28;20033;-73
2023/07/07 01:29:43;;;;;;;0.68;0.43;;;;;;;;;;1040437;28;20018;-73
2023/07/07 01:30:34;;;;;;;0.15;0.15;;;;;;;;;;1044310;28;20451;-73
2023/07/07 01:31:11;;;;;;;0.10;0.10;;;;;;;;;;1043512;28;20087;-73
2023/07/07 01:31:44;;;;;;;1.85;1.30;;;;;;;;;;1043958;28;20020;-73
2023/07/07 01:32:19;;;;;;;0.63;0.30;;;;;;;;;;1044616;28;20085;-73
2023/07/07 01:32:51;;;;;;;0.20;0.20;;;;;;;;;;1043587;28;20029;-73
2023/07/07 01:33:27;;;;;;;1.85;1.35;;;;;;;;;;1044474;28;20032;-73
2023/07/07 01:33:57;;;;;;;0.30;0.28;;;;;;;;;;1044064;28;20051;-73
2023/07/07 01:34:28;;;;;;;0.93;0.15;;;;;;;;;;1044001;28;20459;-73
2023/07/07 01:35:03;;;;;;;2.90;0.65;;;;;;;;;;1044112;28;20028;-73
2023/07/07 01:35:34;;;;;;;0.73;0.73;;;;;;;;;;1043690;28;20064;-73
2023/07/07 01:36:05;;;;;;;0.35;0.28;;;;;;;;;;1043321;28;20473;-73
2023/07/07 01:36:35;;;;;;;0.10;0.10;;;;;;;;;;1043851;28;20067;-73
2023/07/07 01:37:06;;;;;;;0.98;0.88;;;;;;;;;;1043904;28;20025;-73
2023/07/07 01:37:36;;;;;;;0.10;0.10;;;;;;;;;;1043650;28;20025;-73
2023/07/07 01:38:06;;;;;;;0.30;0.30;;;;;;;;;;1043475;28;20025;-73
2023/07/07 01:38:39;;;;;;;0.22;0.22;;;;;;;;;;1044359;28;20082;-73
2023/07/07 01:39:10;;;;;;;0.80;0.63;;;;;;;;;;1039035;28;20060;-73
2023/07/07 01:39:42;;;;;;;0.70;0.52;;;;;;;;;;1038773;28;20021;-73
2023/07/07 01:40:12;;;;;;;0.17;0.17;;;;;;;;;;1039527;28;20075;-73
2023/07/07 01:40:47;;;;;;;0.22;0.22;;;;;;;;;;1037910;28;20084;-73
2023/07/07 01:41:20;;;;;;;0.00;0.00;;;;;;;;;;1040191;28;20037;-73
2023/07/07 01:41:54;;;;;;;4.50;1.60;;;;;;;;;;1039427;28;20021;-73
2023/07/07 01:42:28;;;;;;;4.38;0.35;;;;;;;;;;1041189;28;20021;-73
2023/07/07 01:43:00;;;;;;;0.47;0.47;;;;;;;;;;1043590;28;20136;-73
2023/07/07 01:43:35;;;;;;;0.43;0.35;;;;;;;;;;1043776;28;20029;-73
2023/07/07 01:44:12;;;;;;;0.40;0.40;;;;;;;;;;1043755;28;20087;-73
2023/07/07 01:44:42;;;;;;;0.45;0.45;;;;;;;;;;1039340;28;20018;-73
2023/07/07 01:45:36;;;;;;;1.83;1.55;;;;;;;;;;1038433;28;20032;-73
2023/07/07 01:46:26;;;;;;;0.43;0.40;;;;;;;;;;1026137;28;20575;-73
2023/07/07 01:47:03;;;;;;;0.40;0.40;;;;;;;;;;1026708;28;20062;-73
2023/07/07 01:47:35;;;;;;;0.00;0.00;;;;;;;;;;1039796;28;20108;-73
2023/07/07 01:48:21;;;;;;;0.77;0.77;;;;;;;;;;1039665;28;20021;-73
2023/07/07 01:48:54;;;;;;;0.03;0.03;;;;;;;;;;1042716;28;20032;-73
2023/07/07 01:49:28;;;;;;;0.20;0.20;;;;;;;;;;1043868;28;20024;-73
2023/07/07 01:50:04;;;;;;;0.85;0.35;;;;;;;;;;1040048;28;20022;-73
2023/07/07 01:50:35;;;;;;;3.75;0.52;;;;;;;;;;1039576;28;20025;-73
2023/07/07 01:51:08;;;;;;;0.20;0.20;;;;;;;;;;1039680;28;20021;-73
2023/07/07 01:51:52;;;;;;;0.22;0.22;;;;;;;;;;1040856;28;20021;-73
2023/07/07 01:52:25;;;;;;;0.65;0.65;;;;;;;;;;1044033;28;20025;-73
2023/07/07 01:53:06;;;;;;;0.63;0.63;;;;;;;;;;1043727;28;20163;-73
2023/07/07 01:53:39;;;;;;;0.20;0.20;;;;;;;;;;1043967;28;20064;-73
2023/07/07 01:54:11;;;;;;;0.20;0.20;;;;;;;;;;1043606;28;20024;-73
2023/07/07 01:54:44;;;;;;;14.93;0.50;;;;;;;;;;1043464;28;20035;-73
2023/07/07 01:55:19;;;;;;;0.25;0.20;;;;;;;;;;1039456;28;20556;-73
2023/07/07 01:55:52;;;;;;;3.15;0.70;;;;;;;;;;1038617;28;20029;-73
2023/07/07 01:56:25;;;;;;;0.65;0.35;;;;;;;;;;1039744;28;20025;-73
2023/07/07 01:56:56;;;;;;;0.55;0.55;;;;;;;;;;1039292;28;20028;-73
2023/07/07 01:57:27;;;;;;;0.22;0.15;;;;;;;;;;1040811;28;20491;-73
2023/07/07 01:57:59;;;;;;;1.02;1.02;;;;;;;;;;1043915;28;20060;-73
2023/07/07 01:58:31;;;;;;;0.60;0.60;;;;;;;;;;1044057;28;20032;-73
2023/07/07 01:59:02;;;;;;;0.00;0.00;;;;;;;;;;1044246;28;20021;-73
2023/07/07 01:59:32;;;;;;;0.57;0.57;;;;;;;;;;1038573;28;20481;-73
2023/07/07 02:00:03;;;;;;;2.67;1.92;;;;;;;;;;1039609;28;20171;-73
2023/07/07 02:00:34;;;;;;;0.00;0.00;;;;;;;;;;1039623;28;20087;-73
2023/07/07 02:01:05;;;;;;;0.32;0.32;;;;;;;;;;1039851;28;20034;-73
2023/07/07 02:01:35;;;;;;;0.17;0.17;;;;;;;;;;1043889;28;20606;-73
2023/07/07 02:02:06;;;;;;;1.40;1.30;;;;;;;;;;1043871;28;20243;-73
2023/07/07 02:02:37;;;;;;;0.30;0.30;;;;;;;;;;1043805;28;20116;-73
2023/07/07 02:03:08;;;;;;;0.80;0.30;;;;;;;;;;1039196;28;20029;-73
2023/07/07 02:03:39;;;;;;;0.10;0.10;;;;;;;;;;1039645;28;20049;-73
2023/07/07 02:04:09;;;;;;;0.93;0.90;;;;;;;;;;1039858;28;20475;-73
2023/07/07 02:04:39;;;;;;;1.88;1.08;;;;;;;;;;1039437;28;20459;-73
2023/07/07 02:05:10;;;;;;;0.00;0.00;;;;;;;;;;1038878;28;20228;-73
2023/07/07 02:05:41;;;;;;;0.82;0.52;;;;;;;;;;1039136;28;20609;-73
2023/07/07 02:06:11;;;;;;;2.42;1.23;;;;;;;;;;1039354;28;20029;-73
2023/07/07 02:06:42;;;;;;;0.45;0.45;;;;;;;;;;1039509;28;20036;-73
2023/07/07 02:07:12;;;;;;;1.13;0.73;;;;;;;;;;1043776;28;20111;-73
2023/07/07 02:07:43;;;;;;;1.00;0.90;;;;;;;;;;1043952;28;20472;-73
2023/07/07 02:08:14;;;;;;;0.00;0.00;;;;;;;;;;1044164;28;20027;-73
2023/07/07 02:08:44;;;;;;;0.00;0.00;;;;;;;;;;1043821;28;20036;-73
2023/07/07 02:09:15;;;;;;;2.72;0.55;;;;;;;;;;1039472;28;20512;-73
2023/07/07 02:09:45;;;;;;;0.40;0.40;;;;;;;;;;1039231;28;20025;-73
2023/07/07 02:10:16;;;;;;;0.05;0.05;;;;;;;;;;1039715;28;20418;-73
2023/07/07 02:10:46;;;;;;;0.00;0.00;;;;;;;;;;1039854;28;20049;-73
2023/07/07 02:11:17;;;;;;;0.00;0.00;;;;;;;;;;1039718;28;20449;-73
2023/07/07 02:11:47;;;;;;;0.17;0.10;;;;;;;;;;1039357;28;20029;-73
2023/07/07 02:12:17;;;;;;;0.10;0.10;;;;;;;;;;1035641;28;20079;-73
2023/07/07 02:12:48;;;;;;;0.10;0.10;;;;;;;;;;1035611;28;20036;-72
2023/07/07 02:13:19;;;;;;;0.10;0.10;;;;;;;;;;1039983;28;20083;-74
2023/07/07 02:13:49;;;;;;;0.20;0.20;;;;;;;;;;1039587;28;20017;-73
2023/07/07 02:14:20;;;;;;;2.65;0.65;;;;;;;;;;1044254;28;20025;-72
2023/07/07 02:14:50;;;;;;;4.40;1.95;;;;;;;;;;1043954;28;20116;-72
2023/07/07 02:15:21;;;;;;;2.53;0.85;;;;;;;;;;1043283;28;20119;-72
2023/07/07 02:15:51;;;;;;;0.00;0.00;;;;;;;;;;1043926;28;20021;-72
2023/07/07 02:16:22;;;;;;;6.78;1.85;;;;;;;;;;1042726;28;20052;-73
2023/07/07 02:16:52;;;;;;;1.48;1.08;;;;;;;;;;1042632;28;20036;-72
2023/07/07 02:17:24;;;;;;;0.00;0.00;;;;;;;;;;1038888;28;20659;-72
2023/07/07 02:17:55;;;;;;;0.75;0.75;;;;;;;;;;1039306;28;20025;-72
2023/07/07 02:18:26;;;;;;;0.68;0.40;;;;;;;;;;1039779;28;20025;-72
2023/07/07 02:18:56;;;;;;;0.57;0.52;;;;;;;;;;1034363;28;20028;-72
2023/07/07 02:19:27;;;;;;;0.20;0.20;;;;;;;;;;1031208;28;20053;-72
2023/07/07 02:19:57;;;;;;;1.75;0.95;;;;;;;;;;1031007;28;20022;-72
2023/07/07 02:20:28;;;;;;;2.65;1.00;;;;;;;;;;1036019;28;20029;-73
2023/07/07 02:20:58;;;;;;;0.40;0.10;;;;;;;;;;1039563;28;20086;-73
2023/07/07 02:21:29;;;;;;;0.75;0.55;;;;;;;;;;1043780;28;20033;-72
2023/07/07 02:21:59;;;;;;;0.00;0.00;;;;;;;;;;1043582;28;20423;-73
2023/07/07 02:22:29;;;;;;;0.57;0.45;;;;;;;;;;1043953;28;20506;-73
2023/07/07 02:23:00;;;;;;;1.85;0.80;;;;;;;;;;1042662;28;20463;-73
2023/07/07 02:23:31;;;;;;;0.22;0.22;;;;;;;;;;1038799;28;20513;-72
2023/07/07 02:24:01;;;;;;;1.50;1.40;;;;;;;;;;1039236;28;20493;-72
2023/07/07 02:24:32;;;;;;;0.00;0.00;;;;;;;;;;1035059;28;20445;-72
2023/07/07 02:25:02;;;;;;;1.75;0.70;;;;;;;;;;1035409;28;20536;-72
2023/07/07 02:25:33;;;;;;;0.10;0.10;;;;;;;;;;1034094;28;20034;-72
2023/07/07 02:26:03;;;;;;;1.08;0.98;;;;;;;;;;1035501;28;20036;-73
2023/07/07 02:26:34;;;;;;;3.47;0.77;;;;;;;;;;1037619;28;20025;-72
2023/07/07 02:27:07;;;;;;;0.05;0.05;;;;;;;;;;1034906;28;20022;-72
2023/07/07 02:27:37;;;;;;;0.00;0.00;;;;;;;;;;1037772;28;20048;-72
2023/07/07 02:28:08;;;;;;;2.72;1.85;;;;;;;;;;1039052;28;20077;-72
2023/07/07 02:28:38;;;;;;;0.03;0.03;;;;;;;;;;1044102;28;20059;-73
2023/07/07 02:29:09;;;;;;;0.65;0.65;;;;;;;;;;1043764;28;20135;-73
2023/07/07 02:29:40;;;;;;;0.68;0.60;;;;;;;;;;1039451;28;20032;-73
2023/07/07 02:30:10;;;;;;;0.35;0.35;;;;;;;;;;1039712;28;20025;-73
2023/07/07 02:30:41;;;;;;;0.63;0.38;;;;;;;;;;1039242;28;20027;-72
2023/07/07 02:31:12;;;;;;;0.22;0.22;;;;;;;;;;1039907;28;20028;-72
2023/07/07 02:31:42;;;;;;;0.70;0.68;;;;;;;;;;1039465;28;20010;-72
2023/07/07 02:32:12;;;;;;;0.95;0.60;;;;;;;;;;1039813;28;20116;-72
2023/07/07 02:32:43;;;;;;;0.73;0.43;;;;;;;;;;1039109;28;20161;-72
2023/07/07 02:33:15;;;;;;;0.60;0.60;;;;;;;;;;1038384;28;20028;-72
2023/07/07 02:33:45;;;;;;;0.57;0.35;;;;;;;;;;1039429;28;20111;-72
2023/07/07 02:34:16;;;;;;;2.33;0.70;;;;;;;;;;1039673;28;20074;-72
2023/07/07 02:34:49;;;;;;;0.10;0.10;;;;;;;;;;1039797;28;20491;-72
2023/07/07 02:35:19;;;;;;;2.65;1.20;;;;;;;;;;1038813;28;20019;-72
2023/07/07 02:35:50;;;;;;;1.75;0.75;;;;;;;;;;1039066;28;20044;-72
2023/07/07 02:36:20;;;;;;;0.10;0.10;;;;;;;;;;1042687;28;20574;-72
2023/07/07 02:36:52;;;;;;;0.20;0.20;;;;;;;;;;1043821;28;20489;-72
2023/07/07 02:37:23;;;;;;;0.90;0.90;;;;;;;;;;1044107;28;20039;-72
2023/07/07 02:37:55;;;;;;;0.10;0.10;;;;;;;;;;1043690;28;20464;-72
2023/07/07 02:38:26;;;;;;;0.75;0.75;;;;;;;;;;1039552;28;20025;-72
2023/07/07 02:38:56;;;;;;;0.05;0.05;;;;;;;;;;1039151;28;20505;-72
2023/07/07 02:39:27;;;;;;;0.00;0.00;;;;;;;;;;1039719;28;20021;-72
2023/07/07 02:39:57;;;;;;;0.10;0.10;;;;;;;;;;1039079;28;20060;-72
2023/07/07 02:40:29;;;;;;;0.40;0.40;;;;;;;;;;1039692;28;20036;-72
2023/07/07 02:41:00;;;;;;;0.10;0.10;;;;;;;;;;1035584;28;20014;-72
2023/07/07 02:41:30;;;;;;;1.55;0.55;;;;;;;;;;1035898;28;20084;-72
2023/07/07 02:42:00;;;;;;;0.20;0.10;;;;;;;;;;1039148;28;20022;-72
2023/07/07 02:42:31;;;;;;;0.80;0.32;;;;;;;;;;1034979;28;20118;-72
2023/07/07 02:43:01;;;;;;;0.00;0.00;;;;;;;;;;1039259;28;20029;-73
2023/07/07 02:43:32;;;;;;;0.32;0.32;;;;;;;;;;1038774;28;20041;-73
2023/07/07 02:44:02;;;;;;;0.95;0.60;;;;;;;;;;1039792;28;20024;-73
2023/07/07 02:44:33;;;;;;;0.85;0.32;;;;;;;;;;1035509;28;20569;-73
2023/07/07 02:45:03;;;;;;;0.05;0.05;;;;;;;;;;1035423;28;20048;-73
2023/07/07 02:45:34;;;;;;;0.00;0.00;;;;;;;;;;1035387;28;20018;-74
2023/07/07 02:46:04;;;;;;;1.33;0.57;;;;;;;;;;1039913;28;20440;-73
2023/07/07 02:46:35;;;;;;;0.15;0.10;;;;;;;;;;1044219;28;20419;-73
2023/07/07 02:47:06;;;;;;;0.38;0.22;;;;;;;;;;1039261;28;20022;-73
2023/07/07 02:47:36;;;;;;;0.00;0.00;;;;;;;;;;1039563;28;20401;-73
2023/07/07 02:48:06;;;;;;;0.65;0.28;;;;;;;;;;1039588;28;20025;-73
2023/07/07 02:48:37;;;;;;;0.03;0.03;;;;;;;;;;1040076;28;20017;-72
2023/07/07 02:49:08;;;;;;;0.10;0.10;;;;;;;;;;1043933;28;20021;-72
2023/07/07 02:49:38;;;;;;;0.13;0.13;;;;;;;;;;1043710;28;20108;-74
2023/07/07 02:50:09;;;;;;;0.47;0.35;;;;;;;;;;1043965;28;20040;-74
2023/07/07 02:50:39;;;;;;;0.10;0.10;;;;;;;;;;1043936;28;20028;-73
2023/07/07 02:51:10;;;;;;;0.75;0.38;;;;;;;;;;1043887;28;20017;-74
2023/07/07 02:51:40;;;;;;;0.93;0.65;;;;;;;;;;1043428;28;20021;-73
2023/07/07 02:52:11;;;;;;;1.15;1.05;;;;;;;;;;1038886;28;20121;-73
2023/07/07 02:52:41;;;;;;;0.68;0.60;;;;;;;;;;1038995;28;20108;-72
2023/07/07 02:53:12;;;;;;;0.98;0.55;;;;;;;;;;1039587;28;20025;-72
2023/07/07 02:53:42;;;;;;;0.40;0.30;;;;;;;;;;1039933;28;20035;-72
2023/07/07 02:54:12;;;;;;;0.43;0.43;;;;;;;;;;1043943;28;20019;-72
2023/07/07 02:54:43;;;;;;;6.70;0.82;;;;;;;;;;1043852;28;20017;-73
2023/07/07 02:55:13;;;;;;;0.13;0.10;;;;;;;;;;1044107;28;20051;-73
2023/07/07 02:55:47;;;;;;;0.35;0.35;;;;;;;;;;1043276;28;20024;-73
2023/07/07 02:56:17;;;;;;;0.25;0.25;;;;;;;;;;1038310;28;20017;-73
2023/07/07 02:56:48;;;;;;;0.30;0.30;;;;;;;;;;1038351;28;20029;-73
2023/07/07 02:57:18;;;;;;;0.50;0.50;;;;;;;;;;1037734;28;20022;-73
2023/07/07 02:57:49;;;;;;;0.13;0.13;;;;;;;;;;1036554;28;20029;-73
2023/07/07 02:58:19;;;;;;;1.10;1.00;;;;;;;;;;1039697;28;20025;-72
2023/07/07 02:58:50;;;;;;;0.60;0.50;;;;;;;;;;1039468;28;20052;-73
2023/07/07 02:59:20;;;;;;;0.43;0.28;;;;;;;;;;1043973;28;20021;-73
2023/07/07 02:59:51;;;;;;;0.17;0.17;;;;;;;;;;1043522;28;20033;-72
2023/07/07 03:00:21;;;;;;;0.28;0.28;;;;;;;;;;1043970;28;20021;-72
2023/07/07 03:00:52;;;;;;;1.02;0.68;;;;;;;;;;1039684;28;20032;-72
2023/07/07 03:01:23;;;;;;;1.02;0.75;;;;;;;;;;1039077;28;20065;-72
2023/07/07 03:01:54;;;;;;;0.15;0.15;;;;;;;;;;1036193;28;20041;-75
2023/07/07 03:02:24;;;;;;;2.30;1.02;;;;;;;;;;1039085;28;20500;-72
2023/07/07 03:02:55;;;;;;;15.75;1.65;;;;;;;;;;1039057;28;20029;-72
2023/07/07 03:03:29;;;;;;;0.90;0.80;;;;;;;;;;1039802;28;20029;-73
2023/07/07 03:03:59;;;;;;;0.00;0.00;;;;;;;;;;1039437;28;20021;-72
2023/07/07 03:04:29;;;;;;;0.10;0.10;;;;;;;;;;1039278;28;20381;-72
2023/07/07 03:05:00;;;;;;;0.10;0.10;;;;;;;;;;1043052;28;20503;-73
2023/07/07 03:05:33;;;;;;;0.00;0.00;;;;;;;;;;1044098;28;20075;-73
2023/07/07 03:06:05;;;;;;;0.10;0.10;;;;;;;;;;1042803;28;20082;-73
2023/07/07 03:06:36;;;;;;;0.10;0.10;;;;;;;;;;1043404;28;20033;-73
2023/07/07 03:07:06;;;;;;;0.00;0.00;;;;;;;;;;1042611;28;20024;-73
2023/07/07 03:07:37;;;;;;;0.60;0.55;;;;;;;;;;1037954;28;20124;-73
2023/07/07 03:08:07;;;;;;;0.20;0.20;;;;;;;;;;1039627;28;20061;-73
2023/07/07 03:08:38;;;;;;;0.63;0.63;;;;;;;;;;1038566;28;20543;-73
2023/07/07 03:09:09;;;;;;;1.67;1.40;;;;;;;;;;1039181;28;20112;-73
2023/07/07 03:09:39;;;;;;;0.15;0.15;;;;;;;;;;1041903;28;20607;-73
2023/07/07 03:10:10;;;;;;;1.25;0.25;;;;;;;;;;1042782;28;20025;-72
2023/07/07 03:10:41;;;;;;;0.35;0.35;;;;;;;;;;1043163;28;20017;-72
2023/07/07 03:11:12;;;;;;;0.00;0.00;;;;;;;;;;1043179;28;20543;-72
2023/07/07 03:11:43;;;;;;;0.93;0.85;;;;;;;;;;1043240;28;20477;-72
2023/07/07 03:12:14;;;;;;;0.17;0.17;;;;;;;;;;1043871;28;20029;-72
2023/07/07 03:12:44;;;;;;;3.03;0.40;;;;;;;;;;1043428;28;20029;-72
2023/07/07 03:13:15;;;;;;;0.00;0.00;;;;;;;;;;1044006;28;20017;-72
2023/07/07 03:13:46;;;;;;;1.25;1.05;;;;;;;;;;1043488;28;20598;-74